Bellaire, MI (49615)

8:02 PM EDT on October 24, 2014 (GMT -0400)
Bellaire | Change Station
CLOSE
Current Station
Personal Weather Station
Location: Bellaire, MI
Elevation: 748 ft
Nearby Weather Stations

Elev 748 ft 44.91 °N, 85.24 °W | Updated 2 minutes ago

Overcast
Overcast
51.0 °F
Feels Like 51.0 °F
N
0.0
Wind Variable Wind from West
Gusts 3.0 mph

Today
High -- | Low -- °F
--% Chance of Precip.
Yesterday
High -- | Low -- °F
Precip. -- in
8:08 AM 6:40 PM
New Moon, 1% visible
Pressure 29.93 in
Visibility 10.0 miles
Clouds Overcast 1600 ft
Dew Point 47 °F
Humidity 87%
Rainfall 0.00 in
Snow Depth Not available.
UV 0 out of 12
Pollen .90 out of 12
Ozone Good
PM2.5 Good
Flu Activity Sporadic
METAR KACB 242358Z AUTO 00000KT 10SM OVC016 11/09 A2993 RMK AO2 T01130090

More Conditions Fewer Conditions

Pressure 29.93 in
Visibility 10.0 miles
Clouds Overcast 1600 ft
Dew Point 47 °F
Humidity 87%
Rainfall 0.00 in
Snow Depth Not available.
UV 0 out of 12
Pollen .90 out of 12
Ozone Good
PM2.5 Good
Flu Activity Sporadic
METAR KACB 242358Z AUTO 00000KT 10SM OVC016 11/09 A2993 RMK AO2 T01130090

More Conditions Fewer Conditions

Nowcast | as of 8:00 PM EDT on October 24, 2014

At 9 PM...mostly cloudy. Temperature 48. Light winds. At 11 PM...mostly cloudy. Temperature 46. South winds 5 mph. At 1 am...mostly cloudy. Temperature 46. Southwest winds 6 mph. At 3 am...mostly cloudy. Temperature 48. Southwest winds 6 mph.

×

10-Day Weather Forecast

Almanac

Astronomy

Oct. 24, 2014 Rise Set
Actual Time 8:08 AM EDT 6:40 PM EDT
Civil Twilight 7:38 AM EDT 7:10 PM EDT
Nautical Twilight 7:04 AM EDT 7:45 PM EDT
Astronomical Twilight 6:30 AM EDT 8:19 PM EDT
Moon 8:48 AM EDT (10/24) 7:18 PM EDT (10/24)
Length of Visible Light 11h 32m
Length of Day
10h 32m
Tomorrow will be 2m 54s shorter.
New Moon, 1% of the Moon is Illuminated
Today
New Moon
Oct 30
First Quarter
Nov 6
Full
Nov 14
Last Quarter
Nov 22
New

Today's Extremes

State Highs State Lows

Community

WunderPhotos

Upload Photos

1,764,721 photos uploaded!

Nearby

Air Quality

  Air Quality AQ Index Pollutant
Yesterday Good
PM2.5
Yesterday Good
OZONE
Current Good
PM2.5
Current Good
OZONE
Friday Good
PM2.5
Saturday Good
PM2.5
Sunday Good
PM2.5
Monday Good
PM2.5

Snow Depth

Station Depth Elevation
No new snow has been reported.

Earthquake Activity

City Distance Mag. Time & Date
No recent earthquake activity has been reported nearby.
Minimum magnitude displayed is 2.5.

Coastal Water Temperatures

Place Temperature
Mackinaw City, MI 53.1 °F
Port Inland, MI 51.1 °F

Nearby Weather Stations